Time;durP1;ratioP1;P1;durP2;ratioP2;P2;SDS_P1;SDS_P2;PMS_P1;PMS_P2;Temp;Humidity;BMP_temperature;BMP_pressure;BME280_temperature;BME280_humidity;BME280_pressure;Samples;Min_cycle;Max_cycle;Signal;HPM_P1;HPM_P2
2022/07/17 00:01:40;;;;;;;10.50;1.83;;;;;;;;;;5050973;28;20218;-69
2022/07/17 00:04:06;;;;;;;5.78;1.30;;;;;;;;;;5049764;28;20218;-68
2022/07/17 00:06:31;;;;;;;4.88;1.42;;;;;;;;;;5051190;28;20269;-68
2022/07/17 00:08:58;;;;;;;6.20;1.40;;;;;;;;;;5051089;28;20248;-68
2022/07/17 00:11:23;;;;;;;5.68;1.42;;;;;;;;;;5049799;28;20735;-68
2022/07/17 00:13:48;;;;;;;4.63;1.33;;;;;;;;;;5050828;28;20292;-68
2022/07/17 00:16:13;;;;;;;7.75;1.38;;;;;;;;;;5049586;28;20623;-68
2022/07/17 00:18:39;;;;;;;5.45;1.40;;;;;;;;;;5050703;28;20211;-68
2022/07/17 00:21:04;;;;;;;3.83;1.30;;;;;;;;;;5050706;28;20234;-66
2022/07/17 00:23:29;;;;;;;3.92;1.30;;;;;;;;;;5039253;28;20235;-65
2022/07/17 00:25:55;;;;;;;6.65;1.75;;;;;;;;;;5039739;28;20209;-65
2022/07/17 00:28:20;;;;;;;4.40;1.40;;;;;;;;;;5030309;28;20223;-65
2022/07/17 00:30:45;;;;;;;5.15;1.20;;;;;;;;;;5020703;28;20646;-65
2022/07/17 00:33:11;;;;;;;6.90;1.30;;;;;;;;;;5035342;28;20677;-65
2022/07/17 00:35:36;;;;;;;5.25;1.30;;;;;;;;;;5041117;28;20215;-65
2022/07/17 00:38:01;;;;;;;8.25;1.60;;;;;;;;;;5039661;28;20496;-66
2022/07/17 00:40:27;;;;;;;5.68;1.80;;;;;;;;;;5036147;28;20218;-66
2022/07/17 00:42:52;;;;;;;8.07;1.85;;;;;;;;;;5024056;28;20235;-66
2022/07/17 00:45:17;;;;;;;5.70;1.58;;;;;;;;;;5023489;28;20637;-65
2022/07/17 00:47:53;;;;;;;7.13;1.50;;;;;;;;;;5026967;28;20199;-65
2022/07/17 00:50:19;;;;;;;4.85;1.23;;;;;;;;;;5043952;28;20740;-65
2022/07/17 00:52:44;;;;;;;8.05;1.80;;;;;;;;;;5044422;28;20207;-65
2022/07/17 00:55:10;;;;;;;4.43;1.30;;;;;;;;;;5043780;28;20234;-65
2022/07/17 00:57:35;;;;;;;7.55;1.75;;;;;;;;;;5039679;28;20218;-65
2022/07/17 01:00:00;;;;;;;9.15;1.50;;;;;;;;;;5023623;28;20305;-65
2022/07/17 01:02:26;;;;;;;5.63;1.48;;;;;;;;;;5013144;28;20216;-66
2022/07/17 01:04:51;;;;;;;10.57;2.00;;;;;;;;;;5012804;28;20212;-65
2022/07/17 01:07:18;;;;;;;6.05;1.52;;;;;;;;;;5004271;28;20700;-65
2022/07/17 01:09:43;;;;;;;13.20;1.55;;;;;;;;;;5005366;28;20216;-65
2022/07/17 01:12:09;;;;;;;9.20;1.40;;;;;;;;;;5004586;28;20212;-65
2022/07/17 01:14:34;;;;;;;7.25;1.50;;;;;;;;;;5004553;28;20223;-65
2022/07/17 01:16:59;;;;;;;6.47;1.48;;;;;;;;;;5004820;28;20209;-65
2022/07/17 01:19:25;;;;;;;5.85;1.38;;;;;;;;;;5005482;28;20305;-65
2022/07/17 01:21:50;;;;;;;7.57;1.45;;;;;;;;;;5023717;28;20220;-65
2022/07/17 01:24:15;;;;;;;4.05;1.35;;;;;;;;;;5023869;28;20291;-65
2022/07/17 01:26:42;;;;;;;6.85;1.35;;;;;;;;;;5022904;28;20208;-65
2022/07/17 01:29:08;;;;;;;4.88;1.50;;;;;;;;;;5029302;28;20627;-65
2022/07/17 01:31:33;;;;;;;6.57;1.85;;;;;;;;;;5007743;28;20223;-65
2022/07/17 01:33:59;;;;;;;7.18;1.42;;;;;;;;;;5023377;28;20215;-65
2022/07/17 01:36:24;;;;;;;7.13;1.60;;;;;;;;;;5006199;28;20579;-65
2022/07/17 01:38:49;;;;;;;5.45;1.50;;;;;;;;;;5023926;28;20219;-66
2022/07/17 01:41:15;;;;;;;3.05;1.17;;;;;;;;;;5022392;28;20224;-66
2022/07/17 01:43:40;;;;;;;5.68;1.30;;;;;;;;;;5023760;28;20592;-66
2022/07/17 01:46:06;;;;;;;8.20;1.50;;;;;;;;;;5023286;28;20705;-65
2022/07/17 01:48:31;;;;;;;5.78;1.50;;;;;;;;;;5023211;28;20208;-66
2022/07/17 01:50:56;;;;;;;4.10;1.20;;;;;;;;;;5023685;28;20212;-65
2022/07/17 01:53:22;;;;;;;8.52;1.50;;;;;;;;;;5022878;28;20203;-65
2022/07/17 01:55:47;;;;;;;5.95;1.45;;;;;;;;;;5022875;28;20208;-65
2022/07/17 01:58:13;;;;;;;5.20;1.33;;;;;;;;;;5023401;28;20208;-65
2022/07/17 02:00:38;;;;;;;5.28;1.30;;;;;;;;;;4985988;28;20236;-65
2022/07/17 02:03:04;;;;;;;8.25;1.50;;;;;;;;;;5003142;28;20590;-66
2022/07/17 02:05:29;;;;;;;5.47;1.42;;;;;;;;;;5003961;28;20232;-65
2022/07/17 02:07:54;;;;;;;6.07;1.75;;;;;;;;;;5004012;28;20240;-65
2022/07/17 02:10:19;;;;;;;4.18;1.25;;;;;;;;;;5002617;28;21750;-65
2022/07/17 02:12:45;;;;;;;4.63;1.30;;;;;;;;;;5003873;28;20252;-65
2022/07/17 02:15:10;;;;;;;9.65;1.60;;;;;;;;;;5003179;28;20196;-66
2022/07/17 02:17:36;;;;;;;6.15;1.30;;;;;;;;;;5003316;28;20394;-65
2022/07/17 02:20:01;;;;;;;5.22;1.40;;;;;;;;;;5003313;28;20212;-65
2022/07/17 02:22:26;;;;;;;6.32;1.25;;;;;;;;;;5003942;28;20639;-65
2022/07/17 02:24:52;;;;;;;5.90;1.17;;;;;;;;;;5002876;28;20204;-65
2022/07/17 02:27:17;;;;;;;4.30;1.40;;;;;;;;;;5002751;28;20255;-65
2022/07/17 02:29:42;;;;;;;8.20;1.38;;;;;;;;;;5003861;28;20624;-65
2022/07/17 02:32:08;;;;;;;7.25;1.30;;;;;;;;;;5009440;28;20208;-65
2022/07/17 02:34:33;;;;;;;4.80;1.40;;;;;;;;;;5023742;28;20212;-65
2022/07/17 02:36:58;;;;;;;6.50;1.50;;;;;;;;;;5021902;28;20298;-65
2022/07/17 02:39:24;;;;;;;3.42;1.30;;;;;;;;;;5022687;28;20790;-65
2022/07/17 02:41:49;;;;;;;7.15;1.70;;;;;;;;;;5022367;28;20756;-65
2022/07/17 02:44:14;;;;;;;7.20;1.38;;;;;;;;;;5021767;28;20212;-65
2022/07/17 02:46:39;;;;;;;4.53;1.35;;;;;;;;;;5022269;28;20254;-65
2022/07/17 02:49:06;;;;;;;6.93;1.42;;;;;;;;;;5022380;28;20203;-65
2022/07/17 02:51:31;;;;;;;5.07;1.50;;;;;;;;;;5021764;28;20679;-65
2022/07/17 02:53:56;;;;;;;6.10;1.50;;;;;;;;;;5022736;28;20220;-65
2022/07/17 02:56:21;;;;;;;4.20;1.08;;;;;;;;;;5021658;28;20212;-65
2022/07/17 02:58:47;;;;;;;5.90;1.55;;;;;;;;;;5021771;28;20203;-65
2022/07/17 03:01:12;;;;;;;5.35;1.23;;;;;;;;;;5021293;28;20250;-65
2022/07/17 03:03:38;;;;;;;5.43;1.60;;;;;;;;;;5030354;28;20237;-66
2022/07/17 03:06:03;;;;;;;7.82;1.40;;;;;;;;;;5020632;28;20581;-65
2022/07/17 03:08:28;;;;;;;3.85;1.40;;;;;;;;;;5022084;28;20322;-66
2022/07/17 03:10:54;;;;;;;9.25;1.48;;;;;;;;;;5022275;28;20571;-65
2022/07/17 03:13:19;;;;;;;5.93;1.50;;;;;;;;;;5020564;28;20239;-66
2022/07/17 03:15:44;;;;;;;5.97;1.58;;;;;;;;;;5008554;28;20247;-66
2022/07/17 03:18:10;;;;;;;3.70;1.33;;;;;;;;;;5001875;28;20299;-65
2022/07/17 03:20:35;;;;;;;8.13;1.70;;;;;;;;;;5002176;28;20224;-65
2022/07/17 03:23:00;;;;;;;9.65;1.60;;;;;;;;;;5002840;28;20228;-66
2022/07/17 03:25:25;;;;;;;6.72;1.48;;;;;;;;;;5033262;28;20210;-65
2022/07/17 03:27:51;;;;;;;6.63;1.48;;;;;;;;;;5040618;28;20268;-65
2022/07/17 03:30:16;;;;;;;4.85;1.55;;;;;;;;;;5029899;28;20534;-65
2022/07/17 03:32:41;;;;;;;7.07;1.60;;;;;;;;;;5034184;28;20227;-65
2022/07/17 03:35:08;;;;;;;7.00;1.63;;;;;;;;;;5040299;28;20676;-65
2022/07/17 03:37:33;;;;;;;9.30;2.38;;;;;;;;;;5022079;28;20670;-66
2022/07/17 03:39:58;;;;;;;6.15;1.52;;;;;;;;;;5021496;28;20208;-65
2022/07/17 03:42:23;;;;;;;5.32;1.45;;;;;;;;;;5020620;28;20332;-65
2022/07/17 03:44:49;;;;;;;5.38;1.40;;;;;;;;;;5021226;28;20623;-65
2022/07/17 03:47:14;;;;;;;5.38;1.40;;;;;;;;;;5020484;28;20208;-66
2022/07/17 03:49:39;;;;;;;10.98;2.38;;;;;;;;;;5016151;28;20216;-65
2022/07/17 03:52:05;;;;;;;6.85;1.55;;;;;;;;;;5002463;28;20283;-65
2022/07/17 03:54:30;;;;;;;8.35;1.63;;;;;;;;;;5001488;28;20315;-65
2022/07/17 03:56:55;;;;;;;6.97;1.40;;;;;;;;;;5002128;28;20732;-65
2022/07/17 03:59:21;;;;;;;5.57;1.73;;;;;;;;;;5001463;28;20412;-65
2022/07/17 04:01:46;;;;;;;6.10;1.35;;;;;;;;;;5001411;28;20233;-65
2022/07/17 04:04:11;;;;;;;5.18;1.42;;;;;;;;;;5001626;28;20219;-66
2022/07/17 04:06:37;;;;;;;6.07;1.50;;;;;;;;;;5001772;28;20729;-66
2022/07/17 04:09:03;;;;;;;5.65;1.42;;;;;;;;;;5000601;28;20747;-66
2022/07/17 04:11:28;;;;;;;4.47;1.40;;;;;;;;;;5002035;28;20216;-66
2022/07/17 04:13:53;;;;;;;7.82;1.83;;;;;;;;;;5001601;28;20231;-66
2022/07/17 04:16:19;;;;;;;4.80;1.38;;;;;;;;;;5001844;28;20587;-67
2022/07/17 04:18:44;;;;;;;5.50;1.60;;;;;;;;;;5005658;28;20565;-66
2022/07/17 04:21:10;;;;;;;5.45;1.63;;;;;;;;;;5005680;28;20691;-66
2022/07/17 04:23:35;;;;;;;5.90;1.63;;;;;;;;;;5005002;28;20216;-66
2022/07/17 04:26:00;;;;;;;7.20;1.50;;;;;;;;;;5005774;28;20196;-66
2022/07/17 04:28:26;;;;;;;4.55;1.40;;;;;;;;;;5005807;28;20240;-66
2022/07/17 04:30:51;;;;;;;5.78;1.50;;;;;;;;;;5005197;28;20290;-66
2022/07/17 04:33:16;;;;;;;6.85;1.90;;;;;;;;;;4989279;28;20208;-66
2022/07/17 04:35:42;;;;;;;7.60;1.50;;;;;;;;;;5005758;28;20603;-66
2022/07/17 04:38:07;;;;;;;8.95;1.73;;;;;;;;;;5004854;28;20266;-65
2022/07/17 04:40:33;;;;;;;5.60;1.50;;;;;;;;;;5005325;28;20212;-65
2022/07/17 04:42:58;;;;;;;3.83;1.38;;;;;;;;;;5005559;28;20219;-66
2022/07/17 04:45:24;;;;;;;6.95;1.35;;;;;;;;;;5023272;28;20299;-65
2022/07/17 04:47:49;;;;;;;7.97;1.83;;;;;;;;;;5024980;28;20215;-65
2022/07/17 04:50:14;;;;;;;8.02;1.60;;;;;;;;;;5023840;28;20231;-66
2022/07/17 04:52:39;;;;;;;5.50;1.83;;;;;;;;;;5024741;28;20276;-66
2022/07/17 04:55:05;;;;;;;4.75;1.40;;;;;;;;;;5024166;28;20215;-65
2022/07/17 04:57:30;;;;;;;7.78;1.75;;;;;;;;;;5024844;28;20760;-66
2022/07/17 04:59:55;;;;;;;5.20;1.38;;;;;;;;;;5024094;28;20218;-66
2022/07/17 05:02:21;;;;;;;7.72;1.70;;;;;;;;;;5024140;28;20612;-71
2022/07/17 05:04:47;;;;;;;5.40;1.50;;;;;;;;;;5023393;28;20429;-65
2022/07/17 05:07:12;;;;;;;5.45;1.30;;;;;;;;;;5023956;28;20220;-64
2022/07/17 05:09:37;;;;;;;8.45;1.50;;;;;;;;;;5024850;28;20207;-66
2022/07/17 05:12:03;;;;;;;6.13;1.33;;;;;;;;;;5008311;28;20212;-65
2022/07/17 05:14:28;;;;;;;5.10;1.27;;;;;;;;;;5006084;28;20633;-65
2022/07/17 05:16:53;;;;;;;6.00;1.80;;;;;;;;;;4997213;28;20545;-66
2022/07/17 05:19:19;;;;;;;4.28;1.30;;;;;;;;;;5005892;28;20234;-65
2022/07/17 05:21:44;;;;;;;9.50;1.45;;;;;;;;;;5005322;28;20688;-65
2022/07/17 05:24:09;;;;;;;6.10;1.30;;;;;;;;;;5027739;28;20696;-65
2022/07/17 05:26:35;;;;;;;3.88;1.55;;;;;;;;;;5042943;28;20203;-64
2022/07/17 05:29:00;;;;;;;7.72;1.60;;;;;;;;;;5042087;28;20212;-65
2022/07/17 05:31:25;;;;;;;5.63;1.50;;;;;;;;;;5043910;28;20215;-64
2022/07/17 05:33:51;;;;;;;4.72;1.45;;;;;;;;;;5041509;28;20203;-64
2022/07/17 05:36:16;;;;;;;5.13;1.30;;;;;;;;;;5043686;28;20638;-65
2022/07/17 05:38:41;;;;;;;4.47;1.50;;;;;;;;;;5043397;28;20303;-64
2022/07/17 05:41:07;;;;;;;7.80;1.75;;;;;;;;;;5041239;28;20226;-64
2022/07/17 05:43:32;;;;;;;7.65;1.70;;;;;;;;;;5036538;28;20212;-65
2022/07/17 05:45:57;;;;;;;7.45;1.63;;;;;;;;;;5036199;28;20342;-64
2022/07/17 05:48:23;;;;;;;8.45;1.92;;;;;;;;;;5042484;28;20211;-66
2022/07/17 05:50:48;;;;;;;7.20;1.88;;;;;;;;;;5043111;28;20674;-65
2022/07/17 05:53:14;;;;;;;6.00;1.80;;;;;;;;;;5042075;28;20218;-64
2022/07/17 05:55:40;;;;;;;10.00;1.58;;;;;;;;;;5043314;28;20199;-64
2022/07/17 05:58:05;;;;;;;5.10;1.50;;;;;;;;;;5047997;28;20257;-65
2022/07/17 06:00:30;;;;;;;6.50;1.90;;;;;;;;;;5053048;28;20689;-66
2022/07/17 06:02:56;;;;;;;5.80;1.95;;;;;;;;;;5052307;28;20211;-65
2022/07/17 06:05:21;;;;;;;8.70;2.22;;;;;;;;;;5052284;28;20231;-65
2022/07/17 06:07:46;;;;;;;8.93;2.20;;;;;;;;;;5053403;28;20222;-64
2022/07/17 06:10:12;;;;;;;7.72;2.00;;;;;;;;;;5052007;28;20541;-64
2022/07/17 06:12:37;;;;;;;6.95;2.17;;;;;;;;;;5053171;28;20250;-64
2022/07/17 06:15:02;;;;;;;6.45;1.88;;;;;;;;;;5051672;28;20257;-64
2022/07/17 06:17:28;;;;;;;6.15;2.22;;;;;;;;;;5052672;28;20239;-65
2022/07/17 06:19:53;;;;;;;6.80;1.83;;;;;;;;;;5052795;28;20215;-63
2022/07/17 06:22:19;;;;;;;7.95;2.08;;;;;;;;;;5051757;28;20227;-63
2022/07/17 06:24:44;;;;;;;7.50;2.10;;;;;;;;;;5052709;28;20586;-64
2022/07/17 06:27:10;;;;;;;7.38;2.00;;;;;;;;;;5052414;28;20202;-64
2022/07/17 06:29:35;;;;;;;7.90;2.45;;;;;;;;;;5051816;28;20717;-64
2022/07/17 06:32:00;;;;;;;9.27;2.40;;;;;;;;;;5046143;28;20261;-65
2022/07/17 06:34:26;;;;;;;7.82;2.63;;;;;;;;;;5037585;28;20207;-64
2022/07/17 06:36:51;;;;;;;7.15;2.45;;;;;;;;;;5038496;28;20212;-65
2022/07/17 06:39:16;;;;;;;8.63;2.20;;;;;;;;;;5032050;28;20212;-65
2022/07/17 06:41:42;;;;;;;8.05;2.00;;;;;;;;;;5032525;28;20228;-66
2022/07/17 06:44:07;;;;;;;7.15;1.90;;;;;;;;;;5031325;28;20208;-64
2022/07/17 06:46:33;;;;;;;10.65;2.85;;;;;;;;;;5032284;28;20216;-64
2022/07/17 06:48:58;;;;;;;9.75;2.20;;;;;;;;;;5032423;28;20670;-68
2022/07/17 06:51:23;;;;;;;6.20;1.67;;;;;;;;;;5030825;28;20306;-66
2022/07/17 06:53:49;;;;;;;7.07;1.88;;;;;;;;;;5032629;28;20257;-66
2022/07/17 06:56:14;;;;;;;7.22;2.13;;;;;;;;;;5032171;28;20207;-66
2022/07/17 06:58:39;;;;;;;8.85;1.90;;;;;;;;;;5031810;28;20227;-66
2022/07/17 07:01:05;;;;;;;8.15;2.00;;;;;;;;;;5031184;28;20268;-66
2022/07/17 07:03:30;;;;;;;6.65;1.88;;;;;;;;;;5032179;28;20670;-66
2022/07/17 07:05:55;;;;;;;8.55;1.70;;;;;;;;;;5031248;28;20226;-66
2022/07/17 07:08:20;;;;;;;7.22;1.77;;;;;;;;;;5031845;28;20208;-67
2022/07/17 07:10:46;;;;;;;6.07;1.77;;;;;;;;;;5032283;28;20219;-66
2022/07/17 07:13:12;;;;;;;10.15;1.80;;;;;;;;;;5031037;28;20288;-67
2022/07/17 07:15:37;;;;;;;9.52;1.70;;;;;;;;;;5044889;28;20222;-67
2022/07/17 07:18:03;;;;;;;8.25;1.77;;;;;;;;;;5050990;28;20743;-67
2022/07/17 07:20:28;;;;;;;6.95;2.38;;;;;;;;;;5050908;28;20219;-67
2022/07/17 07:22:54;;;;;;;9.75;1.85;;;;;;;;;;5051941;28;20246;-67
2022/07/17 07:25:19;;;;;;;4.20;1.60;;;;;;;;;;5050743;28;20219;-67
2022/07/17 07:27:44;;;;;;;7.47;1.80;;;;;;;;;;5051893;28;20215;-67
2022/07/17 07:30:10;;;;;;;9.05;1.70;;;;;;;;;;5041426;28;20204;-67
2022/07/17 07:32:37;;;;;;;5.55;1.52;;;;;;;;;;5031012;28;20553;-67
2022/07/17 07:35:03;;;;;;;8.35;1.20;;;;;;;;;;5057918;28;20206;-66
2022/07/17 07:37:28;;;;;;;7.82;1.10;;;;;;;;;;5040731;28;20698;-66
2022/07/17 07:39:53;;;;;;;4.57;0.95;;;;;;;;;;5031067;28;20222;-66
2022/07/17 07:42:19;;;;;;;6.00;1.27;;;;;;;;;;5013514;28;20318;-66
2022/07/17 07:44:44;;;;;;;7.03;1.52;;;;;;;;;;5031663;28;20212;-66
2022/07/17 07:47:09;;;;;;;5.00;1.33;;;;;;;;;;5030098;28;20218;-66
2022/07/17 07:49:35;;;;;;;6.57;1.00;;;;;;;;;;5031284;28;20211;-67
2022/07/17 07:52:00;;;;;;;4.20;1.02;;;;;;;;;;5030870;28;20208;-68
2022/07/17 07:54:25;;;;;;;5.95;1.10;;;;;;;;;;5030604;28;20207;-66
2022/07/17 07:56:51;;;;;;;8.95;1.40;;;;;;;;;;5031417;28;20208;-66
2022/07/17 07:59:16;;;;;;;4.50;1.00;;;;;;;;;;5030916;28;20212;-66
2022/07/17 08:01:41;;;;;;;5.03;1.05;;;;;;;;;;5018543;28;20228;-66
2022/07/17 08:04:06;;;;;;;7.13;1.30;;;;;;;;;;4993510;28;20707;-67
2022/07/17 08:06:32;;;;;;;5.63;1.15;;;;;;;;;;5011310;28;20228;-65
2022/07/17 08:08:57;;;;;;;7.10;1.00;;;;;;;;;;5010653;28;20216;-67
2022/07/17 08:11:24;;;;;;;7.45;1.05;;;;;;;;;;5011429;28;20235;-65
2022/07/17 08:13:50;;;;;;;7.05;1.25;;;;;;;;;;5011482;28;20207;-66
2022/07/17 08:16:15;;;;;;;5.28;1.00;;;;;;;;;;5028230;28;20216;-63
2022/07/17 08:18:40;;;;;;;6.00;1.50;;;;;;;;;;5030858;28;20209;-65
2022/07/17 08:21:06;;;;;;;5.50;1.17;;;;;;;;;;5026895;28;20302;-63
2022/07/17 08:23:32;;;;;;;8.75;1.30;;;;;;;;;;5030068;28;20246;-62
2022/07/17 08:25:57;;;;;;;4.35;1.00;;;;;;;;;;5031324;28;20228;-62
2022/07/17 08:28:23;;;;;;;4.68;0.93;;;;;;;;;;5030544;28;20215;-63
2022/07/17 08:30:48;;;;;;;7.22;1.30;;;;;;;;;;5029923;28;20231;-62
2022/07/17 08:33:15;;;;;;;7.20;1.38;;;;;;;;;;5030296;28;20911;-63
2022/07/17 08:35:40;;;;;;;5.63;0.90;;;;;;;;;;5029562;28;20632;-63
2022/07/17 08:38:05;;;;;;;6.80;1.40;;;;;;;;;;5030562;28;20519;-63
2022/07/17 08:40:32;;;;;;;7.95;1.20;;;;;;;;;;5030892;28;20238;-63
2022/07/17 08:42:57;;;;;;;8.30;1.38;;;;;;;;;;5028913;28;20273;-62
2022/07/17 08:45:23;;;;;;;5.53;1.10;;;;;;;;;;5030307;28;20215;-62
2022/07/17 08:47:49;;;;;;;6.90;1.13;;;;;;;;;;5013065;28;20253;-68
2022/07/17 08:50:15;;;;;;;4.40;0.90;;;;;;;;;;5029204;28;20207;-70
2022/07/17 08:52:41;;;;;;;6.68;1.35;;;;;;;;;;5030569;28;20221;-70
2022/07/17 08:55:09;;;;;;;3.80;1.17;;;;;;;;;;5030664;28;20270;-69
2022/07/17 08:57:36;;;;;;;6.95;1.20;;;;;;;;;;5030486;28;20358;-70
2022/07/17 09:00:02;;;;;;;4.47;0.90;;;;;;;;;;5029982;28;20211;-69
2022/07/17 09:02:27;;;;;;;6.70;1.30;;;;;;;;;;5030753;28;20294;-70
2022/07/17 09:04:53;;;;;;;4.90;0.95;;;;;;;;;;5033651;28;20285;-70
2022/07/17 09:07:18;;;;;;;6.68;1.27;;;;;;;;;;5033710;28;20295;-71
2022/07/17 09:09:49;;;;;;;3.65;0.90;;;;;;;;;;5034234;28;20671;-70
2022/07/17 09:12:14;;;;;;;6.82;1.20;;;;;;;;;;5033335;28;20207;-69
2022/07/17 09:14:40;;;;;;;5.28;1.00;;;;;;;;;;5016725;28;20612;-72
2022/07/17 09:17:06;;;;;;;5.00;0.90;;;;;;;;;;5033729;28;20749;-72
2022/07/17 09:19:33;;;;;;;26.17;2.58;;;;;;;;;;5033368;28;20207;-72
2022/07/17 09:22:08;;;;;;;17.00;4.03;;;;;;;;;;5033925;28;20716;-70
2022/07/17 09:24:42;;;;;;;8.52;1.40;;;;;;;;;;5033984;28;20215;-72
2022/07/17 09:27:08;;;;;;;6.10;1.30;;;;;;;;;;5031567;28;20218;-69
2022/07/17 09:29:34;;;;;;;4.05;0.90;;;;;;;;;;5033751;28;20319;-68
2022/07/17 09:31:59;;;;;;;6.72;1.15;;;;;;;;;;5013909;28;20235;-69
2022/07/17 09:34:25;;;;;;;5.05;1.05;;;;;;;;;;5010922;28;20212;-69
2022/07/17 09:37:08;;;;;;;7.05;1.13;;;;;;;;;;5006851;28;20212;-68
2022/07/17 09:39:34;;;;;;;4.47;1.30;;;;;;;;;;5038713;28;20277;-72
2022/07/17 09:42:00;;;;;;;5.43;1.10;;;;;;;;;;5038310;28;20228;-70
2022/07/17 09:44:25;;;;;;;4.15;1.63;;;;;;;;;;5027502;28;20212;-69
2022/07/17 09:46:50;;;;;;;3.28;1.00;;;;;;;;;;5027201;28;20207;-69
2022/07/17 09:49:15;;;;;;;4.95;1.08;;;;;;;;;;5025385;28;20241;-68
2022/07/17 09:51:41;;;;;;;6.30;1.10;;;;;;;;;;5019963;28;20686;-69
2022/07/17 09:54:07;;;;;;;5.53;1.40;;;;;;;;;;5026416;28;20215;-69
2022/07/17 09:56:33;;;;;;;4.50;1.10;;;;;;;;;;5023055;28;20212;-69
2022/07/17 09:59:00;;;;;;;7.07;1.38;;;;;;;;;;5020187;28;20709;-68
2022/07/17 10:01:25;;;;;;;4.25;1.20;;;;;;;;;;5019039;28;20224;-66
2022/07/17 10:03:53;;;;;;;5.40;1.13;;;;;;;;;;5025052;28;20215;-67
2022/07/17 10:06:18;;;;;;;2.83;1.00;;;;;;;;;;5046099;28;20235;-68
2022/07/17 10:08:43;;;;;;;7.07;1.15;;;;;;;;;;5028991;28;20222;-65
2022/07/17 10:11:09;;;;;;;5.45;1.20;;;;;;;;;;5027101;28;20211;-66
2022/07/17 10:13:35;;;;;;;5.40;1.00;;;;;;;;;;5006284;28;20672;-66
2022/07/17 10:16:00;;;;;;;4.55;0.88;;;;;;;;;;5004959;28;20220;-68
2022/07/17 10:18:34;;;;;;;4.72;1.00;;;;;;;;;;5044011;28;20762;-66
2022/07/17 10:21:08;;;;;;;2.80;0.80;;;;;;;;;;5038899;28;20794;-65
2022/07/17 10:23:34;;;;;;;5.65;1.15;;;;;;;;;;5038069;28;20948;-67
2022/07/17 10:25:59;;;;;;;3.00;0.88;;;;;;;;;;5007753;28;20302;-67
2022/07/17 10:28:24;;;;;;;7.25;1.20;;;;;;;;;;5045052;28;20215;-66
2022/07/17 10:30:50;;;;;;;6.63;1.20;;;;;;;;;;5030282;28;20203;-66
2022/07/17 10:33:15;;;;;;;5.63;1.20;;;;;;;;;;5026963;28;20211;-65
2022/07/17 10:35:42;;;;;;;5.20;1.10;;;;;;;;;;5026516;28;20258;-66
2022/07/17 10:38:11;;;;;;;6.15;1.17;;;;;;;;;;5026438;28;20207;-66
2022/07/17 10:40:36;;;;;;;4.22;1.00;;;;;;;;;;5044626;28;20203;-66
2022/07/17 10:43:02;;;;;;;5.30;0.93;;;;;;;;;;5019303;28;20589;-67
2022/07/17 10:45:35;;;;;;;5.25;0.90;;;;;;;;;;4997690;28;20217;-67
2022/07/17 10:48:01;;;;;;;4.47;0.90;;;;;;;;;;5027234;28;20218;-66
2022/07/17 10:50:31;;;;;;;5.53;1.42;;;;;;;;;;5045297;28;20203;-65
2022/07/17 10:52:57;;;;;;;5.43;1.00;;;;;;;;;;5046053;28;20222;-67
2022/07/17 10:55:23;;;;;;;7.00;1.52;;;;;;;;;;5045444;28;20267;-66
2022/07/17 10:57:49;;;;;;;5.18;1.10;;;;;;;;;;5045212;28;20298;-66
2022/07/17 11:00:15;;;;;;;3.10;1.13;;;;;;;;;;5045839;28;20213;-65
2022/07/17 11:02:40;;;;;;;3.53;1.05;;;;;;;;;;5046044;28;20253;-66
2022/07/17 11:05:08;;;;;;;3.20;0.90;;;;;;;;;;5037454;28;20223;-66
2022/07/17 11:07:33;;;;;;;4.85;1.23;;;;;;;;;;5038093;28;20679;-65
2022/07/17 11:10:00;;;;;;;4.05;1.02;;;;;;;;;;5037984;28;20302;-65
2022/07/17 11:12:32;;;;;;;5.35;0.90;;;;;;;;;;5043537;28;20206;-65
2022/07/17 11:15:03;;;;;;;4.10;0.93;;;;;;;;;;5038657;28;20325;-66
2022/07/17 11:17:29;;;;;;;2.58;0.90;;;;;;;;;;4996768;28;20300;-66
2022/07/17 11:19:54;;;;;;;3.42;0.93;;;;;;;;;;5006283;28;20205;-65
2022/07/17 11:22:22;;;;;;;2.10;0.70;;;;;;;;;;5006163;28;20529;-64
2022/07/17 11:24:47;;;;;;;2.55;0.90;;;;;;;;;;5005612;28;20201;-66
2022/07/17 11:27:19;;;;;;;5.20;1.00;;;;;;;;;;5000050;28;20216;-64
2022/07/17 11:29:45;;;;;;;2.95;1.00;;;;;;;;;;5010616;28;20208;-65
2022/07/17 11:32:10;;;;;;;4.65;1.08;;;;;;;;;;4998261;28;20690;-65
2022/07/17 11:34:35;;;;;;;2.95;0.80;;;;;;;;;;5022795;28;20760;-66
2022/07/17 11:37:01;;;;;;;3.00;0.80;;;;;;;;;;5011026;28;20204;-66
2022/07/17 11:39:26;;;;;;;1.90;0.90;;;;;;;;;;5024210;28;20238;-65
2022/07/17 11:41:52;;;;;;;3.13;0.80;;;;;;;;;;5004116;28;20224;-65
2022/07/17 11:44:18;;;;;;;4.85;0.98;;;;;;;;;;5024559;28;20211;-65
2022/07/17 11:46:45;;;;;;;2.40;0.90;;;;;;;;;;5024655;28;20200;-65
2022/07/17 11:49:10;;;;;;;2.67;0.90;;;;;;;;;;4987390;28;20664;-65
2022/07/17 11:51:38;;;;;;;3.50;1.00;;;;;;;;;;5017613;28;20721;-66
2022/07/17 11:54:04;;;;;;;2.40;0.82;;;;;;;;;;5015962;28;20222;-65
2022/07/17 11:56:29;;;;;;;2.42;0.82;;;;;;;;;;5020884;28;20208;-66
2022/07/17 11:58:54;;;;;;;3.38;0.68;;;;;;;;;;5023325;28;20227;-63
2022/07/17 12:01:20;;;;;;;3.45;0.88;;;;;;;;;;5006430;28;20761;-66
2022/07/17 12:03:45;;;;;;;2.42;0.80;;;;;;;;;;4999073;28;20267;-66
2022/07/17 12:06:10;;;;;;;2.05;0.63;;;;;;;;;;5001757;28;20378;-66
2022/07/17 12:08:36;;;;;;;3.70;0.80;;;;;;;;;;5003680;28;20209;-66
2022/07/17 12:11:02;;;;;;;3.33;0.90;;;;;;;;;;5004528;28;20208;-64
2022/07/17 12:13:39;;;;;;;3.97;0.90;;;;;;;;;;5000138;28;20208;-65
2022/07/17 12:16:17;;;;;;;3.05;0.80;;;;;;;;;;4998604;28;20207;-64
2022/07/17 12:18:42;;;;;;;3.63;0.73;;;;;;;;;;5000940;28;20209;-67
2022/07/17 12:21:08;;;;;;;2.70;0.65;;;;;;;;;;5004940;28;20228;-65
2022/07/17 12:23:36;;;;;;;5.05;0.85;;;;;;;;;;5005036;28;20208;-64
2022/07/17 12:26:08;;;;;;;4.18;1.10;;;;;;;;;;5024588;28;20687;-65
2022/07/17 12:28:34;;;;;;;3.15;0.90;;;;;;;;;;5024516;28;20215;-63
2022/07/17 12:30:59;;;;;;;2.65;0.80;;;;;;;;;;5020084;28;20215;-63
2022/07/17 12:33:25;;;;;;;4.68;0.90;;;;;;;;;;5006173;28;20686;-64
2022/07/17 12:35:50;;;;;;;3.35;1.00;;;;;;;;;;4999325;28;20551;-63
2022/07/17 12:38:15;;;;;;;3.90;0.90;;;;;;;;;;4999103;28;20231;-63
2022/07/17 12:40:41;;;;;;;3.50;0.88;;;;;;;;;;5003154;28;20212;-63
2022/07/17 12:43:06;;;;;;;2.17;0.70;;;;;;;;;;5010760;28;20533;-63
2022/07/17 12:45:32;;;;;;;2.33;0.95;;;;;;;;;;5008803;28;20219;-62
2022/07/17 12:47:57;;;;;;;4.38;1.00;;;;;;;;;;5010618;28;20215;-64
2022/07/17 12:50:22;;;;;;;4.03;0.90;;;;;;;;;;5008239;28;20749;-63
2022/07/17 12:52:48;;;;;;;4.18;0.90;;;;;;;;;;5009682;28;20224;-65
2022/07/17 12:55:13;;;;;;;1.35;0.70;;;;;;;;;;5007880;28;20625;-66
2022/07/17 12:57:38;;;;;;;2.00;0.82;;;;;;;;;;5004011;28;20220;-62
2022/07/17 13:00:04;;;;;;;3.20;1.23;;;;;;;;;;5001161;28;20212;-63
2022/07/17 13:02:29;;;;;;;3.42;0.90;;;;;;;;;;5001520;28;20227;-65
2022/07/17 13:04:54;;;;;;;4.47;1.27;;;;;;;;;;5013136;28;20209;-64
2022/07/17 13:07:20;;;;;;;4.85;1.10;;;;;;;;;;5038568;28;20686;-64
2022/07/17 13:09:45;;;;;;;2.67;0.75;;;;;;;;;;5039166;28;20570;-65
2022/07/17 13:12:12;;;;;;;5.35;1.10;;;;;;;;;;5040163;28;20208;-65
2022/07/17 13:14:37;;;;;;;4.72;1.40;;;;;;;;;;5034603;28;20206;-64
2022/07/17 13:17:03;;;;;;;4.28;1.05;;;;;;;;;;5032874;28;20211;-65
2022/07/17 13:19:28;;;;;;;7.18;1.02;;;;;;;;;;5033832;28;20212;-64
2022/07/17 13:21:54;;;;;;;3.45;1.23;;;;;;;;;;5033881;28;20220;-65
2022/07/17 13:24:19;;;;;;;2.97;1.15;;;;;;;;;;5032961;28;20730;-65
2022/07/17 13:26:44;;;;;;;3.72;1.20;;;;;;;;;;5034416;28;20204;-64
2022/07/17 13:29:10;;;;;;;3.85;1.00;;;;;;;;;;5033806;28;20216;-64
2022/07/17 13:31:35;;;;;;;3.47;1.10;;;;;;;;;;5032555;28;20675;-64
2022/07/17 13:34:01;;;;;;;3.30;1.30;;;;;;;;;;5031226;28;20238;-65
2022/07/17 13:36:26;;;;;;;4.55;1.20;;;;;;;;;;5013913;28;20247;-64
2022/07/17 13:38:51;;;;;;;2.38;1.23;;;;;;;;;;5013760;28;20208;-64
2022/07/17 13:41:16;;;;;;;4.63;1.10;;;;;;;;;;5013587;28;20231;-65
2022/07/17 13:43:42;;;;;;;5.00;1.48;;;;;;;;;;5014415;28;20220;-64
2022/07/17 13:46:07;;;;;;;4.22;1.73;;;;;;;;;;5012791;28;20223;-64
2022/07/17 13:48:32;;;;;;;3.30;1.45;;;;;;;;;;5013410;28;20212;-64
2022/07/17 13:50:58;;;;;;;3.60;1.70;;;;;;;;;;5012911;28;20550;-65
2022/07/17 13:53:23;;;;;;;3.53;1.30;;;;;;;;;;5012646;28;20215;-65
2022/07/17 13:55:49;;;;;;;4.55;1.50;;;;;;;;;;5014008;28;20216;-65
2022/07/17 13:58:14;;;;;;;3.38;1.60;;;;;;;;;;5013462;28;20621;-64
2022/07/17 14:00:40;;;;;;;8.20;1.88;;;;;;;;;;5012965;28;20222;-64
2022/07/17 14:03:05;;;;;;;3.92;1.88;;;;;;;;;;5012879;28;20718;-64
2022/07/17 14:05:30;;;;;;;5.95;1.80;;;;;;;;;;5022278;28;20593;-64
2022/07/17 14:07:55;;;;;;;3.72;1.92;;;;;;;;;;5031891;28;20730;-64
2022/07/17 14:10:21;;;;;;;5.53;1.88;;;;;;;;;;5032729;28;20569;-64
2022/07/17 14:12:46;;;;;;;6.07;1.80;;;;;;;;;;5033201;28;20623;-64
2022/07/17 14:15:11;;;;;;;8.80;2.40;;;;;;;;;;5032259;28;20638;-64
2022/07/17 14:17:37;;;;;;;5.57;1.98;;;;;;;;;;5030254;28;20734;-64
2022/07/17 14:20:03;;;;;;;4.60;1.73;;;;;;;;;;5032545;28;20215;-65
2022/07/17 14:22:28;;;;;;;4.22;1.92;;;;;;;;;;5031879;28;20509;-65
2022/07/17 14:24:54;;;;;;;5.00;1.70;;;;;;;;;;5033336;28;20847;-64
2022/07/17 14:27:19;;;;;;;5.07;2.10;;;;;;;;;;5014296;28;20247;-65
2022/07/17 14:29:45;;;;;;;4.80;2.10;;;;;;;;;;5033188;28;20573;-64
2022/07/17 14:32:10;;;;;;;4.60;2.13;;;;;;;;;;5032049;28;20697;-64
2022/07/17 14:34:35;;;;;;;3.58;1.98;;;;;;;;;;5032201;28;20765;-64